• Join FlightAware (Why Join?)
  • Login
  • US Flag 
04:27AM EST


 

Airport Tracker/Info


-or-


 

Live Flight TrackerFlight Track Log ✈ N982TM ✈ 14-May-2013 ✈ 1M5 - KSUS

Flight Track Log - Related Links

Times and Time Zones

All times are in EDT time to prevent confusion due to time zone crossing. See the N982TM flight status page for this flight to view local times or setup timezone preferences in your user account.

Time Position Orientation Groundspeed Altitude Reporting Facility
EDT Latitude Longitude Course Direction KTS MPH feet Rate Location/Type
02:51PM 36.6333 -86.5833 295° West 138 159 7,100  Level Nashville TRACON
02:52PM 36.6486 -86.6250 295° West 152 175 8,800 1,800 Climbing Memphis Center
02:53PM 36.6728 -86.6731 302° West 165 190 10,900 2,100 Climbing Memphis Center
02:54PM 36.6969 -86.7161 305° West 165 190 13,100 2,040 Climbing Memphis Center
02:55PM 36.7214 -86.7639 303° West 165 190 15,000 1,860 Climbing Memphis Center
02:56PM 36.7500 -86.8119 307° West 165 190 16,900 1,800 Climbing Memphis Center
02:57PM 36.7764 -86.8625 303° West 165 190 18,600 1,740 Climbing Memphis Center
02:58PM 36.8094 -86.9258 303° West 183 211 20,400 1,620 Climbing Memphis Center
02:59PM 36.8422 -86.9842 305° West 195 224 21,900 780 Climbing Memphis Center
03:00PM 36.8775 -87.0553 302° West 223 257 22,000  Climbing Memphis Center
03:01PM 36.9192 -87.1342 303° West 258 297 22,000  Level Memphis Center
03:02PM 36.9628 -87.2103 306° West 270 311 22,000  Level Memphis Center
03:03PM 37.0064 -87.2889 305° West 275 316 22,000  Level Memphis Center
03:04PM 37.0458 -87.3681 302° West 275 316 22,000  Level Memphis Center
03:05PM 37.0894 -87.4444 306° West 275 316 22,000  Level Memphis Center
03:06PM 37.1308 -87.5236 303° West 275 316 22,000  Level Memphis Center
03:07PM 37.1719 -87.6000 304° West 275 316 22,000  Level Memphis Center
03:08PM 37.2156 -87.6819 304° West 270 311 22,000  Level Memphis Center
03:09PM 37.2525 -87.7511 304° West 276 318 22,000  Level Memphis Center
03:10PM 37.3042 -87.8433 305° West 283 326 22,000  Level Memphis Center
03:11PM 37.3456 -87.9253 302° West 283 326 22,000  Level Memphis Center
03:12PM 37.3847 -88.0078 301° West 278 320 22,000  Level Memphis Center
03:13PM 37.4236 -88.0875 302° West 278 320 22,000  Level Memphis Center
03:14PM 37.4814 -88.2097 301° West 275 316 22,000  Level Kansas City Center
03:15PM 37.5169 -88.2825 302° West 276 318 22,000  Level Kansas City Center
03:16PM 37.5575 -88.3644 302° West 273 314 22,000  Level Kansas City Center
03:17PM 37.6061 -88.4628 302° West 273 314 22,000  Level Kansas City Center
03:19PM 37.6472 -88.5444 302° West 274 315 22,000  Level Kansas City Center
03:20PM 37.6872 -88.6253 302° West 271 312 22,000  Level Kansas City Center
03:21PM 37.7275 -88.7058 302° West 270 311 22,000  Level Kansas City Center
03:22PM 37.7700 -88.7919 302° West 270 311 22,000  Level Kansas City Center
03:23PM 37.8092 -88.8750 301° West 270 311 22,000  Level Kansas City Center
03:24PM 37.8497 -88.9547 303° West 269 310 22,000 -60 Level Kansas City Center
03:25PM 37.8900 -89.0353 302° West 271 312 21,900 -540 Descending Kansas City Center
03:26PM 37.9383 -89.1314 303° West 276 318 21,000 -900 Descending Kansas City Center
03:27PM 37.9792 -89.2125 303° West 274 315 20,100 -1,020 Descending Kansas City Center
03:28PM 38.0172 -89.2975 300° West 269 310 18,900 -1,500 Descending Kansas City Center
03:29PM 38.0583 -89.3869 300° West 279 321 17,000 -1,620 Descending Kansas City Center
03:30PM 38.1014 -89.4686 304° West 279 321 15,600 -1,260 Descending Kansas City Center
03:31PM 38.1439 -89.5542 302° West 268 308 14,400 -1,200 Descending Kansas City Center
03:32PM 38.1828 -89.6314 303° West 260 299 13,200 -1,140 Descending Kansas City Center
03:33PM 38.2164 -89.6958 304° West 255 293 12,100 -540 Descending Kansas City Center
03:34PM 38.2503 -89.7833 296° West 232 267 12,100  Level Kansas City Center
03:35PM 38.2736 -89.8544 293° West 221 254 12,100  Level Kansas City Center
03:36PM 38.2969 -89.9247 293° West 218 251 12,100  Level Kansas City Center
03:37PM 38.3200 -89.9961 292° West 217 250 12,100 -660 Level Kansas City Center
03:38PM 38.3425 -90.0708 291° West 221 254 10,800 -1,320 Descending Kansas City Center
03:39PM 38.3703 -90.1475 295° West 232 267 9,400 -1,560 Descending Kansas City Center
03:40PM 38.4206 -90.2214 311° West 233 268 7,600 -1,620 Descending Kansas City Center
03:41PM 38.4667 -90.2783 316° Northwest 232 267 6,100 -1,500 Descending Kansas City Center
03:42PM 38.5100 -90.3389 312° West 231 266 4,500 -1,440 Descending Kansas City Center
03:43PM 38.5533 -90.3967 314° West 229 264 3,200 -780 Descending Kansas City Center
03:44PM 38.5894 -90.4431 315° West 198 228 3,000 -60 Descending Kansas City Center
03:45PM 38.6222 -90.4853 315° West 177 204 3,100 -300 Climbing Kansas City Center
03:46PM 38.6506 -90.5353 306° West 171 197 2,400 -780 Descending Kansas City Center
03:47PM 38.6681 -90.5856 294° West 156 180 1,500 -900 Descending Kansas City Center
03:49PM 38.6619 -90.6344 261° West 129 148 600 -900 Descending Kansas City Center
03:50PM 38.6500 -90.6500 303° West  Level FlightAware Approximate
03:57PM 38.6621 -90.6521 303° West  Level Estimated
03:58PM 38.6621 -90.6521 303° West  Level Estimated